Time;durP1;ratioP1;P1;durP2;ratioP2;P2;SDS_P1;SDS_P2;PMS_P1;PMS_P2;Temp;Humidity;BMP_temperature;BMP_pressure;BME280_temperature;BME280_humidity;BME280_pressure;Samples;Min_cycle;Max_cycle;Signal;HPM_P1;HPM_P2
2021/12/05 00:22:24;;;;;;;19.20;4.00;;;4.40;99.90;;;;;;5053036;28;20240;-59
2021/12/05 00:24:55;;;;;;;12.05;3.70;;;4.30;99.90;;;;;;5054083;28;20166;-59
2021/12/05 00:27:29;;;;;;;12.70;3.40;;;4.30;99.90;;;;;;5053814;28;20178;-59
2021/12/05 00:41:04;;;;;;;10.13;3.10;;;4.70;99.90;;;;;;5053899;28;20182;-59
2021/12/05 01:07:58;;;;;;;10.82;3.58;;;4.90;99.90;;;;;;5052329;28;20659;-59
2021/12/05 01:15:40;;;;;;;15.15;4.10;;;5.00;99.90;;;;;;5052914;28;20255;-59
2021/12/05 01:18:14;;;;;;;11.48;3.42;;;5.00;99.90;;;;;;5053063;28;20194;-58
2021/12/05 01:20:43;;;;;;;9.23;3.13;;;5.10;99.90;;;;;;5053376;28;20236;-59
2021/12/05 01:23:23;;;;;;;9.93;3.40;;;5.10;99.90;;;;;;5053028;28;20624;-59
2021/12/05 01:26:04;;;;;;;10.98;3.38;;;5.10;99.90;;;;;;5052361;28;20216;-59
2021/12/05 01:31:32;;;;;;;10.07;3.63;;;5.30;99.90;;;;;;5052311;28;20254;-59
2021/12/05 01:34:14;;;;;;;8.90;2.95;;;5.20;99.90;;;;;;5052050;28;20179;-59
2021/12/05 02:38:03;;;;;;;8.68;2.30;;;5.30;99.90;;;;;;5056081;28;20216;-58
2021/12/05 02:40:31;;;;;;;10.35;3.03;;;5.30;99.90;;;;;;5055008;28;20198;-59
2021/12/05 02:43:12;;;;;;;8.15;3.20;;;5.40;99.90;;;;;;5055771;28;20659;-59
2021/12/05 02:45:42;;;;;;;8.27;2.92;;;5.40;99.90;;;;;;5055860;28;20301;-59
2021/12/05 02:48:08;;;;;;;7.57;2.90;;;5.40;99.90;;;;;;5054770;28;20178;-59
2021/12/05 02:50:37;;;;;;;7.57;3.33;;;5.40;99.90;;;;;;5055926;28;20172;-59
2021/12/05 02:53:17;;;;;;;9.48;4.03;;;5.40;99.90;;;;;;5054703;28;20207;-59
2021/12/05 02:55:44;;;;;;;5.45;3.42;;;5.30;99.90;;;;;;5055787;28;20272;-59
2021/12/05 02:58:42;;;;;;;11.30;4.22;;;5.40;99.90;;;;;;5054645;28;20689;-59
2021/12/05 03:03:31;;;;;;;8.70;3.95;;;5.50;99.90;;;;;;5055428;28;20174;-59
2021/12/05 03:09:01;;;;;;;10.00;3.95;;;5.40;99.90;;;;;;5050792;28;20183;-59
2021/12/05 03:11:28;;;;;;;8.23;4.35;;;5.50;99.90;;;;;;5054008;28;20175;-59
2021/12/05 03:13:54;;;;;;;10.32;4.47;;;5.50;99.90;;;;;;5055427;28;20183;-59
2021/12/05 03:16:22;;;;;;;7.47;3.55;;;5.60;99.90;;;;;;5054917;28;20582;-59
2021/12/05 03:18:48;;;;;;;7.97;4.03;;;5.50;99.90;;;;;;5054145;28;20591;-59
2021/12/05 03:21:15;;;;;;;7.38;3.58;;;5.50;99.90;;;;;;5055362;28;20171;-59
2021/12/05 03:23:44;;;;;;;9.55;3.80;;;5.50;99.90;;;;;;5054149;28;20266;-60
2021/12/05 03:26:14;;;;;;;10.13;3.55;;;5.60;99.90;;;;;;5055311;28;20187;-59
2021/12/05 03:28:40;;;;;;;8.23;3.35;;;5.50;99.90;;;;;;5053825;28;20171;-59
2021/12/05 03:31:06;;;;;;;5.82;3.30;;;5.60;99.90;;;;;;5055215;28;20266;-59
2021/12/05 03:33:35;;;;;;;5.80;3.03;;;5.50;99.90;;;;;;5054015;28;20227;-59
2021/12/05 03:36:01;;;;;;;5.63;2.97;;;5.50;99.90;;;;;;5054992;28;20237;-59
2021/12/05 03:38:27;;;;;;;6.55;3.05;;;5.50;99.90;;;;;;5054796;28;20656;-59
2021/12/05 03:40:53;;;;;;;8.23;3.45;;;5.50;99.90;;;;;;5054794;28;20186;-59
2021/12/05 03:43:19;;;;;;;4.80;3.38;;;5.50;99.90;;;;;;5054983;28;20258;-59
2021/12/05 03:45:49;;;;;;;5.45;3.67;;;5.50;99.90;;;;;;5054751;28;20197;-59
2021/12/05 03:48:16;;;;;;;7.47;3.33;;;5.40;99.90;;;;;;5054855;28;20210;-60
2021/12/05 03:50:43;;;;;;;7.75;3.13;;;5.40;99.90;;;;;;5054762;28;20183;-59
2021/12/05 03:53:10;;;;;;;8.80;3.10;;;5.30;99.90;;;;;;5054739;28;20174;-59
2021/12/05 03:55:38;;;;;;;5.57;3.45;;;5.30;99.90;;;;;;5054631;28;20193;-60
2021/12/05 03:58:04;;;;;;;6.00;3.08;;;5.50;99.90;;;;;;5054378;28;20674;-60
2021/12/05 04:00:38;;;;;;;4.55;2.97;;;5.50;99.90;;;;;;5054497;28;20535;-60
2021/12/05 04:03:08;;;;;;;8.05;3.65;;;5.50;99.90;;;;;;5053370;28;20174;-60
2021/12/05 04:05:34;;;;;;;5.00;3.55;;;5.50;99.90;;;;;;5053558;28;20198;-59
2021/12/05 04:08:06;;;;;;;6.32;2.90;;;5.60;99.90;;;;;;5054540;28;20177;-60
2021/12/05 04:10:32;;;;;;;7.60;3.53;;;5.60;99.90;;;;;;5054484;28;20198;-60
2021/12/05 04:12:58;;;;;;;5.35;3.95;;;5.50;99.90;;;;;;5054364;28;20201;-62
2021/12/05 04:15:24;;;;;;;5.53;2.70;;;5.50;99.90;;;;;;5036099;28;20680;-60
2021/12/05 04:17:50;;;;;;;6.90;3.40;;;5.50;99.90;;;;;;5054369;28;20186;-60
2021/12/05 04:20:17;;;;;;;4.38;2.83;;;5.40;99.90;;;;;;5053332;28;20175;-59
2021/12/05 04:22:44;;;;;;;4.55;3.03;;;5.40;99.90;;;;;;5036620;28;20175;-59
2021/12/05 04:25:12;;;;;;;7.15;3.10;;;5.50;99.90;;;;;;5054181;28;20171;-59
2021/12/05 04:27:39;;;;;;;4.03;3.15;;;5.50;99.90;;;;;;5054156;28;20550;-60
2021/12/05 04:30:07;;;;;;;4.45;2.70;;;5.50;99.90;;;;;;5053074;28;20544;-60
2021/12/05 04:32:33;;;;;;;6.90;3.28;;;5.50;99.90;;;;;;5054335;28;20662;-59
2021/12/05 04:34:59;;;;;;;5.38;2.95;;;5.50;99.90;;;;;;5053995;28;20265;-60
2021/12/05 04:37:25;;;;;;;7.55;3.88;;;5.60;99.90;;;;;;5053703;28;20242;-60
2021/12/05 04:39:51;;;;;;;5.50;3.78;;;5.60;99.90;;;;;;5052774;28;20232;-59
2021/12/05 04:42:17;;;;;;;8.48;3.50;;;5.60;99.90;;;;;;5053864;28;20193;-59
2021/12/05 04:44:44;;;;;;;8.02;3.83;;;5.60;99.90;;;;;;5052631;28;20179;-59
2021/12/05 04:47:10;;;;;;;5.13;3.30;;;5.50;99.90;;;;;;5053052;28;20193;-59
2021/12/05 04:49:39;;;;;;;10.07;3.55;;;5.60;99.90;;;;;;5053772;28;20182;-65
2021/12/05 04:52:05;;;;;;;6.10;3.70;;;5.50;99.90;;;;;;5053847;28;20174;-60
2021/12/05 04:54:32;;;;;;;8.77;4.88;;;5.60;99.90;;;;;;5053458;28;20186;-60
2021/12/05 04:56:58;;;;;;;5.75;3.33;;;5.60;99.90;;;;;;5053573;28;20210;-59
2021/12/05 04:59:27;;;;;;;6.32;4.07;;;5.60;99.90;;;;;;5052649;28;20175;-59
2021/12/05 05:01:57;;;;;;;5.57;4.55;;;5.60;99.90;;;;;;5054716;28;20175;-59
2021/12/05 05:04:27;;;;;;;5.80;3.95;;;5.60;99.90;;;;;;5053894;28;20204;-63
2021/12/05 05:06:59;;;;;;;6.75;4.05;;;5.60;99.90;;;;;;5053555;28;20178;-60
2021/12/05 05:09:25;;;;;;;6.55;4.60;;;5.60;99.90;;;;;;5053645;28;20183;-59
2021/12/05 05:11:51;;;;;;;7.05;4.40;;;5.60;99.90;;;;;;5052154;28;20176;-59
2021/12/05 05:14:17;;;;;;;9.02;4.80;;;5.50;99.90;;;;;;5053594;28;20179;-59
2021/12/05 05:16:44;;;;;;;7.45;4.93;;;5.70;99.90;;;;;;5053913;28;20594;-60
2021/12/05 05:19:11;;;;;;;6.90;5.55;;;5.50;99.90;;;;;;5053895;28;20175;-59
2021/12/05 05:21:55;;;;;;;9.52;5.78;;;5.60;99.90;;;;;;5054155;28;20174;-59
2021/12/05 05:27:40;;;;;;;8.60;5.50;;;5.60;99.90;;;;;;5044977;28;20198;-61
2021/12/05 05:43:50;;;;;;;8.35;5.60;;;5.60;99.90;;;;;;5042905;28;20638;-58
2021/12/05 05:46:19;;;;;;;6.53;4.95;;;5.60;99.90;;;;;;5053583;28;20624;-58
2021/12/05 05:48:51;;;;;;;8.43;5.95;;;5.60;99.90;;;;;;5053243;28;20167;-59
2021/12/05 05:51:18;;;;;;;10.35;4.68;;;5.70;99.90;;;;;;5053166;28;20163;-60
2021/12/05 05:53:47;;;;;;;7.80;4.95;;;5.70;99.90;;;;;;5053094;28;20689;-58
2021/12/05 05:56:18;;;;;;;6.50;4.50;;;5.70;99.90;;;;;;5052904;28;20221;-60
2021/12/05 05:58:51;;;;;;;7.55;5.05;;;5.70;99.90;;;;;;5054686;28;20179;-58
2021/12/05 06:01:32;;;;;;;5.82;4.38;;;5.60;99.90;;;;;;5056696;28;20537;-58
2021/12/05 06:03:58;;;;;;;6.95;4.38;;;5.60;99.90;;;;;;5056926;28;20189;-61
2021/12/05 06:06:25;;;;;;;4.90;4.10;;;5.60;99.90;;;;;;5056801;28;20644;-61
2021/12/05 06:08:51;;;;;;;6.63;4.00;;;5.60;99.90;;;;;;5055540;28;20317;-61
2021/12/05 06:11:17;;;;;;;6.38;4.05;;;5.60;99.90;;;;;;5056686;28;20183;-58
2021/12/05 06:13:44;;;;;;;8.55;4.32;;;5.70;99.90;;;;;;5056647;28;20175;-60
2021/12/05 06:16:12;;;;;;;6.07;3.55;;;5.70;99.90;;;;;;5056369;28;20214;-63
2021/12/05 06:18:38;;;;;;;4.72;3.45;;;5.60;99.90;;;;;;5055382;28;20218;-61
2021/12/05 06:21:05;;;;;;;4.00;3.60;;;5.50;99.90;;;;;;5056514;28;20179;-61
2021/12/05 06:23:32;;;;;;;4.88;3.58;;;5.60;99.90;;;;;;5056243;28;20171;-61
2021/12/05 06:25:58;;;;;;;3.40;3.10;;;5.60;99.90;;;;;;5055118;28;20187;-61
2021/12/05 06:28:32;;;;;;;6.47;3.42;;;5.60;99.90;;;;;;5056371;28;20180;-61
2021/12/05 06:36:56;;;;;;;4.38;3.40;;;5.60;99.90;;;;;;5056199;28;20230;-61
2021/12/05 06:40:36;;;;;;;4.53;4.07;;;5.60;99.90;;;;;;5055355;28;20201;-60
2021/12/05 06:47:47;;;;;;;4.80;4.20;;;5.60;99.90;;;;;;5055163;28;20202;-61
2021/12/05 06:50:12;;;;;;;4.22;3.80;;;5.60;99.90;;;;;;5054732;28;20179;-59
2021/12/05 06:52:38;;;;;;;4.80;3.63;;;5.50;99.90;;;;;;5054815;28;20182;-61
2021/12/05 06:55:05;;;;;;;4.22;3.70;;;5.60;99.90;;;;;;5055426;28;20670;-64
2021/12/05 06:57:30;;;;;;;4.90;4.20;;;5.60;99.90;;;;;;5055535;28;20240;-60
2021/12/05 06:59:56;;;;;;;5.40;4.90;;;5.70;99.90;;;;;;5055503;28;20182;-61
2021/12/05 07:02:23;;;;;;;4.63;4.10;;;5.60;99.90;;;;;;5055687;28;20254;-61
2021/12/05 07:07:29;;;;;;;4.60;3.60;;;5.70;99.90;;;;;;5055717;28;20279;-61
2021/12/05 07:09:55;;;;;;;5.93;4.35;;;5.60;99.90;;;;;;5054056;28;20215;-61
2021/12/05 07:15:26;;;;;;;4.38;3.60;;;5.50;99.90;;;;;;5055350;28;20167;-59
2021/12/05 07:23:35;;;;;;;3.90;3.50;;;5.50;99.90;;;;;;5055321;28;20170;-60
2021/12/05 07:25:54;;;;;;;4.82;4.22;;;5.70;99.90;;;;;;5053796;28;20194;-59
2021/12/05 07:42:09;;;;;;;3.90;3.38;;;5.60;99.90;;;;;;5055083;28;20207;-60
2021/12/05 07:44:34;;;;;;;4.18;3.78;;;5.60;99.90;;;;;;5054697;28;20173;-60
2021/12/05 07:47:01;;;;;;;3.63;3.13;;;5.50;99.90;;;;;;5053487;28;20180;-60
2021/12/05 07:49:27;;;;;;;2.70;2.50;;;5.60;99.90;;;;;;5053490;28;20170;-60
2021/12/05 07:51:52;;;;;;;2.30;2.10;;;5.50;99.90;;;;;;5054695;28;20233;-60
2021/12/05 07:54:31;;;;;;;2.40;2.20;;;5.40;99.90;;;;;;5054786;28;20178;-61
2021/12/05 08:15:59;;;;;;;2.25;1.70;;;5.20;99.90;;;;;;5054360;28;20218;-60
2021/12/05 08:18:27;;;;;;;6.10;4.15;;;5.20;99.90;;;;;;5053382;28;20232;-60
2021/12/05 08:20:53;;;;;;;1.75;1.63;;;5.20;99.90;;;;;;5045545;28;20267;-61
2021/12/05 08:23:20;;;;;;;1.73;1.50;;;5.30;99.90;;;;;;5043033;28;20522;-61
2021/12/05 08:25:53;;;;;;;1.75;1.65;;;5.30;99.90;;;;;;5038058;28;20181;-61
2021/12/05 08:28:35;;;;;;;2.30;2.05;;;5.30;99.90;;;;;;5037429;28;20178;-61
2021/12/05 08:41:58;;;;;;;3.15;2.78;;;5.40;99.90;;;;;;5053405;28;20254;-60
2021/12/05 10:09:20;;;;;;;3.17;2.90;;;6.40;99.90;;;;;;5056841;28;20265;-59
2021/12/05 10:11:24;;;;;;;3.83;3.50;;;6.30;99.90;;;;;;5051565;28;20708;-60
2021/12/05 10:16:43;;;;;;;4.78;4.30;;;6.10;99.90;;;;;;5055548;28;20222;-61
2021/12/05 10:19:41;;;;;;;4.50;3.95;;;6.00;99.90;;;;;;5056583;28;20205;-59
2021/12/05 10:36:15;;;;;;;8.57;7.85;;;6.70;99.90;;;;;;5055601;28;20678;-62
2021/12/05 10:38:47;;;;;;;8.05;7.45;;;6.70;99.90;;;;;;5056229;28;20166;-59
2021/12/05 10:41:33;;;;;;;10.25;6.82;;;6.80;99.90;;;;;;5055293;28;20167;-61
2021/12/05 10:44:11;;;;;;;9.13;7.85;;;6.80;99.90;;;;;;5055458;28;20151;-61
2021/12/05 10:46:39;;;;;;;8.35;7.65;;;7.00;99.90;;;;;;5055840;28;20232;-59
2021/12/05 10:49:12;;;;;;;6.63;6.03;;;6.90;99.90;;;;;;5056375;28;20214;-60
2021/12/05 10:51:48;;;;;;;7.40;6.78;;;6.90;99.90;;;;;;5055209;28;20172;-62
2021/12/05 10:54:17;;;;;;;7.68;7.05;;;7.00;99.90;;;;;;5054669;28;20178;-60
2021/12/05 10:56:50;;;;;;;7.45;6.75;;;7.00;99.90;;;;;;5055163;28;20198;-59
2021/12/05 10:59:29;;;;;;;7.55;6.85;;;6.90;99.90;;;;;;5055907;28;20209;-59
2021/12/05 11:01:57;;;;;;;8.20;7.50;;;7.00;99.90;;;;;;5054917;28;20252;-59
2021/12/05 11:04:27;;;;;;;7.65;7.00;;;7.00;99.90;;;;;;5055450;28;20313;-59
2021/12/05 11:06:54;;;;;;;7.70;7.00;;;7.00;99.90;;;;;;5055007;28;20179;-59
2021/12/05 11:09:41;;;;;;;8.27;7.50;;;6.90;99.90;;;;;;5055609;28;20215;-59
2021/12/05 11:12:31;;;;;;;7.28;6.68;;;7.00;99.90;;;;;;5054682;28;20282;-59
2021/12/05 11:15:02;;;;;;;9.02;8.18;;;7.10;99.90;;;;;;5054427;28;20162;-59
2021/12/05 11:17:33;;;;;;;8.30;7.63;;;7.10;99.90;;;;;;5055390;28;20206;-58
2021/12/05 11:20:17;;;;;;;7.50;6.97;;;7.00;99.90;;;;;;5053490;28;20168;-59
2021/12/05 11:22:46;;;;;;;7.65;7.05;;;7.00;99.90;;;;;;5054863;28;20519;-58
2021/12/05 11:25:22;;;;;;;7.72;7.03;;;7.00;99.90;;;;;;5054620;28;20174;-58
2021/12/05 11:27:51;;;;;;;7.35;6.65;;;7.00;99.90;;;;;;5055391;28;20170;-58
2021/12/05 11:30:26;;;;;;;8.02;7.43;;;6.90;99.90;;;;;;5054661;28;20239;-58
2021/12/05 11:33:07;;;;;;;8.20;7.57;;;6.90;99.90;;;;;;5054965;28;20190;-58
2021/12/05 11:36:01;;;;;;;6.63;6.18;;;6.90;99.90;;;;;;5053505;28;20581;-60
2021/12/05 11:38:29;;;;;;;6.50;6.00;;;6.90;99.90;;;;;;5052707;28;20207;-58
2021/12/05 11:41:06;;;;;;;8.25;7.45;;;6.80;99.90;;;;;;5054168;28;20182;-58
2021/12/05 11:43:47;;;;;;;8.00;7.40;;;6.80;99.90;;;;;;5054696;28;20171;-60
2021/12/05 11:46:17;;;;;;;7.70;7.10;;;6.90;99.90;;;;;;5054452;28;20692;-58
2021/12/05 11:48:47;;;;;;;7.10;6.60;;;7.00;99.90;;;;;;5053044;28;20275;-59
2021/12/05 11:51:19;;;;;;;7.00;6.50;;;7.00;99.90;;;;;;5053844;28;20182;-60
2021/12/05 11:54:19;;;;;;;7.45;6.85;;;7.00;99.90;;;;;;5054704;28;20182;-60
2021/12/05 11:56:56;;;;;;;7.82;7.22;;;7.00;99.90;;;;;;5048364;28;20237;-60
2021/12/05 11:59:33;;;;;;;7.75;6.70;;;6.90;99.90;;;;;;5054315;28;20844;-60
2021/12/05 12:02:24;;;;;;;8.38;7.68;;;6.80;99.90;;;;;;5054035;28;20159;-60
2021/12/05 12:05:32;;;;;;;8.40;7.80;;;6.80;99.90;;;;;;5048635;28;20183;-64
2021/12/05 12:08:07;;;;;;;7.40;6.90;;;6.70;99.90;;;;;;5054288;28;20613;-58
2021/12/05 12:10:41;;;;;;;6.85;6.15;;;6.80;99.90;;;;;;5053963;28;20155;-58
2021/12/05 12:13:22;;;;;;;7.05;6.35;;;6.70;99.90;;;;;;5054532;28;20159;-58
2021/12/05 12:15:58;;;;;;;6.70;6.10;;;6.70;99.90;;;;;;5053260;28;20648;-58
2021/12/05 12:18:28;;;;;;;7.05;6.45;;;6.80;99.90;;;;;;5054045;28;20166;-58
2021/12/05 12:20:55;;;;;;;8.23;7.63;;;6.80;99.90;;;;;;5053604;28;20205;-58
2021/12/05 12:23:23;;;;;;;7.25;6.75;;;6.90;99.90;;;;;;5053889;28;20175;-58
2021/12/05 12:25:54;;;;;;;7.88;7.28;;;7.00;99.90;;;;;;5053517;28;20213;-58
2021/12/05 12:28:20;;;;;;;8.18;7.47;;;7.00;99.90;;;;;;5053885;28;20224;-59
2021/12/05 12:31:02;;;;;;;7.75;7.05;;;7.00;99.90;;;;;;5053416;28;20266;-58
2021/12/05 12:33:30;;;;;;;7.70;6.97;;;7.00;99.90;;;;;;5054030;28;20164;-58
2021/12/05 12:35:56;;;;;;;8.60;7.80;;;7.00;99.90;;;;;;5051838;28;20178;-61
2021/12/05 12:38:45;;;;;;;7.55;6.95;;;7.00;99.90;;;;;;5051880;28;20238;-58
2021/12/05 12:41:15;;;;;;;8.25;7.63;;;6.90;99.90;;;;;;5051941;28;20180;-58
2021/12/05 12:43:46;;;;;;;7.78;7.03;;;7.00;99.90;;;;;;5053222;28;20163;-58
2021/12/05 12:46:32;;;;;;;9.25;8.55;;;7.00;99.90;;;;;;5051038;28;20305;-58
2021/12/05 12:49:16;;;;;;;8.10;7.50;;;7.20;99.90;;;;;;5052955;28;20190;-59
2021/12/05 12:51:47;;;;;;;7.05;6.55;;;7.30;99.90;;;;;;5051528;28;20163;-60
2021/12/05 12:54:24;;;;;;;7.90;7.25;;;7.40;99.90;;;;;;5051818;28;20223;-64
2021/12/05 12:57:00;;;;;;;7.97;7.38;;;7.40;99.90;;;;;;5052249;28;20183;-63
2021/12/05 12:59:30;;;;;;;7.57;7.05;;;7.40;99.90;;;;;;5053049;28;20183;-60
2021/12/05 13:10:40;;;;;;;6.60;6.20;;;7.20;99.90;;;;;;5052357;28;20581;-60
2021/12/05 13:13:18;;;;;;;6.72;6.15;;;7.00;99.90;;;;;;5052883;28;20155;-60
2021/12/05 13:15:57;;;;;;;9.02;6.82;;;6.90;99.90;;;;;;5050362;28;20508;-61
2021/12/05 13:18:29;;;;;;;6.60;6.10;;;6.80;99.90;;;;;;5051948;28;20199;-59
2021/12/05 13:21:06;;;;;;;7.60;6.90;;;6.70;99.90;;;;;;5051134;28;20155;-58
2021/12/05 13:23:41;;;;;;;6.60;6.10;;;6.70;99.90;;;;;;5053108;28;20170;-59
2021/12/05 13:26:34;;;;;;;6.88;6.38;;;6.70;99.90;;;;;;5052218;28;20254;-59
2021/12/05 13:29:20;;;;;;;6.97;6.35;;;6.60;99.90;;;;;;5052733;28;20175;-59
2021/12/05 13:32:04;;;;;;;7.05;6.45;;;6.70;99.90;;;;;;5052060;28;20167;-59
2021/12/05 13:34:32;;;;;;;8.18;7.53;;;6.70;99.90;;;;;;5052425;28;20167;-59
2021/12/05 13:37:06;;;;;;;7.68;7.07;;;6.80;99.90;;;;;;5050407;28;20218;-59
2021/12/05 13:39:32;;;;;;;8.13;7.53;;;6.80;99.90;;;;;;5052645;28;20213;-59
2021/12/05 13:42:22;;;;;;;8.07;7.35;;;6.90;99.90;;;;;;5051969;28;20211;-59
2021/12/05 13:45:03;;;;;;;8.35;7.63;;;6.90;99.90;;;;;;5052177;28;20175;-60
2021/12/05 13:48:10;;;;;;;8.65;8.00;;;7.00;99.90;;;;;;5052623;28;20187;-59
2021/12/05 13:50:48;;;;;;;8.80;8.10;;;7.00;99.90;;;;;;5051877;28;20163;-59
2021/12/05 13:53:23;;;;;;;7.45;6.85;;;7.00;99.90;;;;;;5052248;28;20253;-60
2021/12/05 13:56:01;;;;;;;7.70;6.97;;;7.00;99.90;;;;;;5051700;28;20167;-60
2021/12/05 13:58:38;;;;;;;8.05;7.47;;;6.90;99.90;;;;;;5052552;28;20216;-59
2021/12/05 14:01:23;;;;;;;7.88;7.20;;;6.80;99.90;;;;;;5050183;28;20515;-59
2021/12/05 14:04:08;;;;;;;8.15;7.55;;;6.90;99.90;;;;;;5052528;28;20175;-59
2021/12/05 14:06:42;;;;;;;7.78;7.18;;;6.90;99.90;;;;;;5051817;28;20164;-59
2021/12/05 14:09:26;;;;;;;7.22;6.63;;;7.00;99.90;;;;;;5052441;28;20170;-60
2021/12/05 14:12:03;;;;;;;7.00;6.45;;;6.90;99.90;;;;;;5051194;28;20175;-58
2021/12/05 14:14:40;;;;;;;7.57;7.07;;;6.90;99.90;;;;;;5052416;28;20224;-59
2021/12/05 14:17:15;;;;;;;7.03;6.53;;;6.90;99.90;;;;;;5051615;28;20213;-59
2021/12/05 14:19:48;;;;;;;6.90;6.30;;;6.80;99.90;;;;;;5053777;28;20163;-59
2021/12/05 14:22:15;;;;;;;6.70;6.20;;;6.70;99.90;;;;;;5055599;28;20616;-60
2021/12/05 14:24:45;;;;;;;7.28;6.57;;;6.70;99.90;;;;;;5055782;28;20178;-59
2021/12/05 14:27:17;;;;;;;7.28;6.78;;;6.70;99.90;;;;;;5055587;28;20183;-59
2021/12/05 14:29:45;;;;;;;7.22;6.63;;;6.70;99.90;;;;;;5055965;28;20194;-59
2021/12/05 14:32:15;;;;;;;6.85;6.35;;;6.60;99.90;;;;;;5055357;28;20197;-59
2021/12/05 14:34:42;;;;;;;7.10;6.60;;;6.60;99.90;;;;;;5055294;28;20628;-59
2021/12/05 14:37:14;;;;;;;7.88;7.18;;;6.60;99.90;;;;;;5054752;28;20652;-59
2021/12/05 14:39:48;;;;;;;6.82;6.25;;;6.60;99.90;;;;;;5055751;28;20309;-59
2021/12/05 14:42:17;;;;;;;7.00;6.50;;;6.60;99.90;;;;;;5055495;28;20160;-61
2021/12/05 14:44:45;;;;;;;7.82;7.13;;;6.70;99.90;;;;;;5055393;28;20182;-59
2021/12/05 14:47:17;;;;;;;7.65;7.05;;;6.70;99.90;;;;;;5055352;28;20530;-59
2021/12/05 14:50:07;;;;;;;7.30;6.65;;;6.70;99.90;;;;;;5055493;28;20172;-59
2021/12/05 14:52:36;;;;;;;7.25;6.65;;;6.70;99.90;;;;;;5055143;28;20695;-59
2021/12/05 14:55:07;;;;;;;8.40;7.80;;;6.70;99.90;;;;;;5054284;28;20162;-59
2021/12/05 14:57:39;;;;;;;7.50;6.90;;;6.80;99.90;;;;;;5055370;28;20717;-59
2021/12/05 15:00:10;;;;;;;7.88;7.28;;;6.80;99.90;;;;;;5054751;28;20575;-60
2021/12/05 15:02:37;;;;;;;8.55;7.95;;;6.80;99.90;;;;;;5055256;28;20558;-59
2021/12/05 15:05:08;;;;;;;8.45;7.70;;;6.80;99.90;;;;;;5054383;28;20186;-60
2021/12/05 15:07:33;;;;;;;7.65;6.93;;;6.80;99.90;;;;;;5053551;28;20182;-58
2021/12/05 15:09:59;;;;;;;43.10;27.67;;;7.30;99.90;;;;;;5053023;28;20265;-59
2021/12/05 15:12:29;;;;;;;13.10;11.73;;;7.40;99.90;;;;;;5055118;28;20171;-59
2021/12/05 15:15:01;;;;;;;12.18;11.00;;;7.20;99.90;;;;;;5053776;28;20573;-58
2021/12/05 15:17:39;;;;;;;10.38;9.48;;;7.00;99.90;;;;;;5054979;28;20203;-59
2021/12/05 15:20:15;;;;;;;10.98;9.98;;;6.80;99.90;;;;;;5054377;28;20971;-59
2021/12/05 15:22:43;;;;;;;10.80;9.80;;;6.70;99.90;;;;;;5054650;28;20163;-60
2021/12/05 15:25:13;;;;;;;11.25;10.13;;;6.60;99.90;;;;;;5053896;28;20186;-58
2021/12/05 15:27:39;;;;;;;11.55;10.45;;;6.50;99.90;;;;;;5055003;28;20180;-59
2021/12/05 15:30:11;;;;;;;12.02;10.93;;;6.40;99.90;;;;;;5053905;28;20525;-59
2021/12/05 15:32:37;;;;;;;11.27;10.27;;;6.40;99.90;;;;;;5053460;28;20655;-58
2021/12/05 15:35:07;;;;;;;11.70;10.70;;;6.40;99.90;;;;;;5053647;28;20199;-58
2021/12/05 15:37:33;;;;;;;11.38;10.48;;;6.30;99.90;;;;;;5054508;28;20274;-58
2021/12/05 15:40:00;;;;;;;10.95;9.85;;;6.20;99.90;;;;;;5052397;28;20204;-58
2021/12/05 15:42:37;;;;;;;11.35;10.18;;;6.20;99.90;;;;;;5053052;28;20652;-58
2021/12/05 15:45:09;;;;;;;11.00;9.90;;;6.10;99.90;;;;;;5053538;28;20174;-58
2021/12/05 15:47:36;;;;;;;12.07;10.00;;;6.10;99.90;;;;;;5054508;28;20266;-58
2021/12/05 15:50:16;;;;;;;11.75;10.65;;;6.10;99.90;;;;;;5052058;28;20236;-58
2021/12/05 15:52:49;;;;;;;11.48;10.25;;;6.00;99.90;;;;;;5054091;28;20178;-58
2021/12/05 15:55:29;;;;;;;10.95;9.93;;;6.00;99.90;;;;;;5053375;28;20509;-58
2021/12/05 15:58:09;;;;;;;11.57;10.48;;;5.90;99.90;;;;;;5054201;28;20198;-59
2021/12/05 16:00:59;;;;;;;11.43;10.38;;;5.90;99.90;;;;;;5053583;28;20191;-59
2021/12/05 16:03:46;;;;;;;11.65;10.50;;;5.90;99.90;;;;;;5050485;28;20179;-58
2021/12/05 16:06:14;;;;;;;12.45;11.15;;;5.80;99.90;;;;;;5053391;28;20167;-58
2021/12/05 16:08:42;;;;;;;13.52;12.27;;;5.70;99.90;;;;;;5053888;28;20654;-58
2021/12/05 16:11:17;;;;;;;12.52;11.07;;;5.70;99.90;;;;;;5053292;28;20696;-58
2021/12/05 16:13:45;;;;;;;12.93;11.63;;;5.70;99.90;;;;;;5053694;28;20178;-58
2021/12/05 16:16:14;;;;;;;14.68;13.13;;;5.70;99.90;;;;;;5051701;28;20237;-58
2021/12/05 16:18:42;;;;;;;26.33;22.38;;;5.60;99.90;;;;;;5053861;28;20190;-58
2021/12/05 16:21:38;;;;;;;22.25;19.27;;;5.60;99.90;;;;;;5053042;28;20217;-58
2021/12/05 16:24:17;;;;;;;20.73;18.70;;;5.50;99.90;;;;;;5048973;28;20195;-59
2021/12/05 16:26:46;;;;;;;19.80;16.75;;;5.50;99.90;;;;;;5053151;28;20163;-58
2021/12/05 16:29:19;;;;;;;16.23;14.52;;;5.50;99.90;;;;;;5053377;28;20198;-58
2021/12/05 16:31:53;;;;;;;17.02;14.88;;;5.40;99.90;;;;;;5053034;28;20162;-59
2021/12/05 16:34:21;;;;;;;16.38;14.77;;;5.40;99.90;;;;;;5053832;28;20214;-58
2021/12/05 16:36:58;;;;;;;17.20;15.43;;;5.40;99.90;;;;;;5051435;28;20202;-58
2021/12/05 16:39:45;;;;;;;17.83;16.13;;;5.50;99.90;;;;;;5053475;28;20501;-58
2021/12/05 16:42:18;;;;;;;18.17;16.30;;;5.50;99.90;;;;;;5052328;28;20166;-58
2021/12/05 16:44:53;;;;;;;16.80;15.10;;;5.60;99.90;;;;;;5051955;28;20640;-58
2021/12/05 16:47:23;;;;;;;16.05;14.07;;;5.60;99.90;;;;;;5053297;28;20231;-58
2021/12/05 16:49:52;;;;;;;15.27;13.57;;;5.70;99.90;;;;;;5052964;28;20167;-58
2021/12/05 16:52:20;;;;;;;18.13;16.52;;;5.70;99.90;;;;;;5053033;28;20498;-60
2021/12/05 16:54:50;;;;;;;20.17;18.15;;;5.70;99.90;;;;;;5053092;28;20174;-60
2021/12/05 16:57:21;;;;;;;30.58;27.55;;;5.70;99.90;;;;;;5052950;28;20195;-60
2021/12/05 16:59:53;;;;;;;21.90;19.45;;;5.70;99.90;;;;;;5052825;28;20199;-59
2021/12/05 17:02:22;;;;;;;19.17;17.27;;;5.80;99.90;;;;;;5053139;28;20166;-58
2021/12/05 17:05:05;;;;;;;18.50;16.63;;;5.80;99.90;;;;;;5052886;28;20667;-57
2021/12/05 17:07:38;;;;;;;19.55;16.58;;;5.80;99.90;;;;;;5053098;28;20229;-59
2021/12/05 17:10:09;;;;;;;20.10;18.30;;;5.90;99.90;;;;;;5051903;28;20537;-57
2021/12/05 17:12:36;;;;;;;28.17;25.48;;;5.80;99.90;;;;;;5052987;28;20174;-57
2021/12/05 17:15:18;;;;;;;28.85;24.92;;;5.90;99.90;;;;;;5052056;28;20167;-59
2021/12/05 17:17:46;;;;;;;27.95;23.23;;;5.90;99.90;;;;;;5052892;28;20197;-59
2021/12/05 17:20:18;;;;;;;23.35;20.17;;;5.80;99.90;;;;;;5050370;28;20240;-59
2021/12/05 17:22:56;;;;;;;19.08;17.15;;;5.90;99.90;;;;;;5052554;28;20524;-59
2021/12/05 17:25:41;;;;;;;22.75;20.35;;;5.90;99.90;;;;;;5052227;28;20228;-59
2021/12/05 17:28:13;;;;;;;20.13;18.13;;;5.90;99.90;;;;;;5052579;28;20167;-59
2021/12/05 17:30:57;;;;;;;21.85;19.52;;;6.00;99.90;;;;;;5052264;28;20169;-60
2021/12/05 17:33:33;;;;;;;20.80;18.90;;;6.00;99.90;;;;;;5052845;28;20167;-59
2021/12/05 17:36:18;;;;;;;19.63;17.63;;;6.00;99.90;;;;;;5052013;28;20250;-59
2021/12/05 17:38:44;;;;;;;23.27;21.25;;;6.00;99.90;;;;;;5052220;28;20167;-59
2021/12/05 17:41:09;;;;;;;22.83;20.45;;;5.90;99.90;;;;;;5050900;28;20174;-59
2021/12/05 17:43:35;;;;;;;19.45;17.35;;;6.00;99.90;;;;;;5052597;28;20178;-59
2021/12/05 17:46:02;;;;;;;18.40;16.45;;;6.10;99.90;;;;;;5051687;28;20205;-60
2021/12/05 17:48:28;;;;;;;20.27;17.17;;;6.20;99.90;;;;;;5052330;28;20182;-59
2021/12/05 17:50:55;;;;;;;20.05;18.00;;;6.10;99.90;;;;;;5051906;28;20197;-59
2021/12/05 17:53:27;;;;;;;18.35;16.75;;;6.10;99.90;;;;;;5053621;28;20174;-59
2021/12/05 17:55:59;;;;;;;17.48;15.98;;;6.10;99.90;;;;;;5054321;28;20321;-59
2021/12/05 17:58:53;;;;;;;17.17;15.45;;;6.20;99.90;;;;;;5056551;28;20167;-60
2021/12/05 18:04:06;;;;;;;16.75;15.18;;;6.20;99.90;;;;;;5056200;28;20222;-59
2021/12/05 18:06:33;;;;;;;17.20;15.32;;;6.20;99.90;;;;;;5054506;28;20182;-58
2021/12/05 18:08:58;;;;;;;17.23;15.43;;;6.10;99.90;;;;;;5055093;28;20182;-59
2021/12/05 18:11:25;;;;;;;17.17;15.43;;;6.10;99.90;;;;;;5055896;28;20179;-58
2021/12/05 18:13:57;;;;;;;15.57;13.93;;;6.20;99.90;;;;;;5054762;28;20583;-58
2021/12/05 18:16:25;;;;;;;15.13;13.63;;;6.20;99.90;;;;;;5055406;28;20217;-58
2021/12/05 18:18:56;;;;;;;16.58;15.07;;;6.20;99.90;;;;;;5054540;28;20621;-58
2021/12/05 18:21:22;;;;;;;15.90;14.32;;;6.20;99.90;;;;;;5055531;28;20520;-58
2021/12/05 18:23:49;;;;;;;17.27;15.60;;;6.10;99.90;;;;;;5054532;28;20187;-58
2021/12/05 18:26:16;;;;;;;19.88;17.75;;;6.00;99.90;;;;;;5054416;28;20209;-58
2021/12/05 18:28:46;;;;;;;20.08;18.02;;;5.90;99.90;;;;;;5056229;28;20266;-58
2021/12/05 18:31:17;;;;;;;19.00;17.08;;;5.70;99.90;;;;;;5055052;28;20229;-58
2021/12/05 18:33:43;;;;;;;17.90;16.23;;;5.70;99.90;;;;;;5054769;28;20155;-58
2021/12/05 18:36:09;;;;;;;18.55;16.75;;;5.70;99.90;;;;;;5053654;28;20190;-58
2021/12/05 18:38:37;;;;;;;18.35;16.45;;;5.90;99.90;;;;;;5055549;28;20176;-59
2021/12/05 18:41:08;;;;;;;19.60;15.68;;;5.90;99.90;;;;;;5055133;28;20189;-58
2021/12/05 18:43:34;;;;;;;18.85;16.85;;;6.00;99.90;;;;;;5055866;28;20170;-58